Sierra, Nevada
Current Conditions -  °F | °C
As of 8:15 AM on Saturday 25 Oct 2014 (Local Time) from KRTS Reporting Station
Clear Clear  
Wind Chill: 54°   Ceiling: Unl
Heat Index: 54°   Visibility: 10mi
Dew Point: 28°   Wind: 28mph
Humidity: 38%   Direction: 200°SSW
Pressure: 29.95"   Gusts: 35mph
Location:  39.7378°N, 119.889°W
Report Text: KRTS 251515Z AUTO 20024G30KT 10SM CLR 12/M02 A2995 RMK AO2
Loading
Personal Weather Stations






























Interactive Weather Map New forecast layout! Learn more

10-Day Weather Forecast

Advertisements
Track Severe Weather on mobile